Time;durP1;ratioP1;P1;durP2;ratioP2;P2;SDS_P1;SDS_P2;PMS_P1;PMS_P2;Temp;Humidity;BMP_temperature;BMP_pressure;BME280_temperature;BME280_humidity;BME280_pressure;Samples;Min_cycle;Max_cycle;Signal;HPM_P1;HPM_P2
2024/04/22 14:45:26;;;;;;;8.70;4.10;;;6.40;57.80;;;;;;5517166;25;20590;-58
2024/04/22 14:47:52;;;;;;;6.00;3.60;;;6.60;59.40;;;;;;5482376;25;20950;-58
2024/04/22 14:50:17;;;;;;;8.87;4.00;;;6.70;58.70;;;;;;5470926;25;20860;-59
2024/04/22 14:52:46;;;;;;;5.13;3.93;;;6.80;59.90;;;;;;5463082;26;20308;-64
2024/04/22 14:55:11;;;;;;;4.10;3.70;;;7.00;57.50;;;;;;5465276;26;20276;-64
2024/04/22 14:57:37;;;;;;;4.47;3.77;;;7.10;56.80;;;;;;5458340;26;20445;-63
2024/04/22 15:00:03;;;;;;;4.37;3.37;;;7.20;56.10;;;;;;5461104;26;21076;-63
2024/04/22 15:02:29;;;;;;;3.30;2.77;;;7.30;55.40;;;;;;5463981;26;20273;-64
2024/04/22 15:04:54;;;;;;;3.70;3.20;;;7.20;55.10;;;;;;5474362;26;20790;-63
2024/04/22 15:07:20;;;;;;;3.37;3.07;;;7.10;54.60;;;;;;5474525;26;20597;-64
2024/04/22 15:09:47;;;;;;;4.70;3.77;;;7.00;54.60;;;;;;5481741;26;20237;-63
2024/04/22 15:12:13;;;;;;;4.70;3.70;;;6.90;55.40;;;;;;5470878;26;20232;-62
2024/04/22 15:14:39;;;;;;;3.97;3.10;;;7.00;56.60;;;;;;5438013;26;20456;-63
2024/04/22 15:17:04;;;;;;;3.97;3.50;;;7.10;56.50;;;;;;5458930;25;21057;-63
2024/04/22 15:19:30;;;;;;;6.70;4.03;;;7.10;56.10;;;;;;5480524;26;20293;-63
2024/04/22 15:21:56;;;;;;;3.60;3.30;;;7.00;55.30;;;;;;5486462;26;20264;-63
2024/04/22 15:24:22;;;;;;;3.80;3.47;;;6.90;55.10;;;;;;5474282;26;20234;-63
2024/04/22 15:26:53;;;;;;;4.53;3.57;;;6.80;55.20;;;;;;5481996;26;21303;-63
2024/04/22 15:29:18;;;;;;;5.10;3.30;;;6.70;55.10;;;;;;5474362;26;20554;-63
2024/04/22 15:31:44;;;;;;;6.53;4.03;;;6.60;55.40;;;;;;5471852;26;20472;-63
2024/04/22 15:34:09;;;;;;;4.60;3.70;;;6.50;55.60;;;;;;5475524;26;20279;-63
2024/04/22 15:36:35;;;;;;;4.90;3.80;;;6.40;56.20;;;;;;5477853;26;20231;-62
2024/04/22 15:39:02;;;;;;;4.17;3.60;;;6.40;56.50;;;;;;5462906;26;20284;-64
2024/04/22 15:41:28;;;;;;;5.50;3.40;;;6.30;56.90;;;;;;5480622;26;20226;-62
2024/04/22 15:43:56;;;;;;;4.30;3.43;;;6.30;57.20;;;;;;5475631;25;20455;-63
2024/04/22 15:46:21;;;;;;;4.63;3.20;;;6.30;57.40;;;;;;5463430;26;20458;-62
2024/04/22 15:48:47;;;;;;;3.93;3.53;;;6.20;57.90;;;;;;5475460;26;20497;-62
2024/04/22 15:51:12;;;;;;;4.60;3.47;;;6.20;58.10;;;;;;5465896;26;20223;-63
2024/04/22 15:53:38;;;;;;;4.47;3.30;;;6.20;56.60;;;;;;5440743;26;20663;-62
2024/04/22 15:56:04;;;;;;;6.67;4.07;;;6.10;57.20;;;;;;5455671;26;20232;-64
2024/04/22 15:58:30;;;;;;;4.30;3.20;;;6.20;57.20;;;;;;5449310;26;20775;-66
2024/04/22 16:00:55;;;;;;;6.47;3.37;;;6.20;56.90;;;;;;5465963;26;20232;-66
2024/04/22 16:03:21;;;;;;;6.73;2.80;;;6.20;56.70;;;;;;5453469;26;20283;-65
2024/04/22 16:05:46;;;;;;;6.70;3.53;;;6.20;56.20;;;;;;5453913;26;20232;-65
2024/04/22 16:08:13;;;;;;;7.33;3.30;;;6.20;55.80;;;;;;5427183;26;20227;-65
2024/04/22 16:10:41;;;;;;;5.80;3.10;;;6.20;55.60;;;;;;5419261;26;20232;-65
2024/04/22 16:13:06;;;;;;;3.87;3.47;;;6.40;56.00;;;;;;5445081;26;20457;-64
2024/04/22 16:15:32;;;;;;;4.27;3.17;;;6.40;55.80;;;;;;5455037;26;20593;-65
2024/04/22 16:18:01;;;;;;;4.80;3.10;;;6.40;55.40;;;;;;5460714;26;20562;-66
2024/04/22 16:20:26;;;;;;;3.47;3.10;;;6.40;54.70;;;;;;5432943;26;20370;-65
2024/04/22 16:22:52;;;;;;;3.23;2.93;;;6.30;55.00;;;;;;5467175;26;20490;-65
2024/04/22 16:25:17;;;;;;;9.33;3.63;;;6.20;55.10;;;;;;5475853;26;20787;-65
2024/04/22 16:27:43;;;;;;;12.33;3.73;;;6.10;55.00;;;;;;5459882;26;20243;-65
2024/04/22 16:30:09;;;;;;;5.13;3.57;;;6.00;55.00;;;;;;5465377;26;20842;-66
2024/04/22 16:32:35;;;;;;;5.23;3.40;;;5.90;55.60;;;;;;5452561;26;20880;-64
2024/04/22 16:35:00;;;;;;;4.93;2.97;;;5.90;56.20;;;;;;5460754;26;20235;-64
2024/04/22 16:37:26;;;;;;;4.80;3.00;;;5.90;56.20;;;;;;5451372;26;20279;-64
2024/04/22 16:39:55;;;;;;;3.73;3.30;;;6.00;56.30;;;;;;5463813;26;20270;-64
2024/04/22 16:42:21;;;;;;;3.33;3.03;;;6.00;56.40;;;;;;5461734;26;20821;-65
2024/04/22 16:44:46;;;;;;;3.37;3.00;;;5.90;56.50;;;;;;5460652;26;20515;-65
2024/04/22 16:47:12;;;;;;;4.43;3.30;;;5.80;56.00;;;;;;5428556;26;20457;-65
2024/04/22 16:49:38;;;;;;;3.40;2.90;;;5.80;55.80;;;;;;5454809;26;20222;-64
2024/04/22 16:52:05;;;;;;;4.87;3.27;;;5.70;55.70;;;;;;5464321;26;20509;-65
2024/04/22 16:54:31;;;;;;;2.97;2.67;;;5.70;56.00;;;;;;5468924;26;20880;-65
2024/04/22 16:56:56;;;;;;;4.87;3.20;;;5.70;56.20;;;;;;5422488;26;20445;-65
2024/04/22 16:59:22;;;;;;;3.60;2.90;;;5.70;56.30;;;;;;5427763;26;21143;-66
2024/04/22 17:01:48;;;;;;;11.30;3.20;;;5.70;56.40;;;;;;5430886;26;20246;-64
2024/04/22 17:04:13;;;;;;;3.20;2.90;;;5.70;56.80;;;;;;5419715;26;20232;-64
2024/04/22 17:06:39;;;;;;;3.10;2.70;;;5.80;57.00;;;;;;5449382;26;20638;-63
2024/04/22 17:09:04;;;;;;;3.53;3.23;;;5.80;56.60;;;;;;5444784;26;20234;-64
2024/04/22 17:11:30;;;;;;;3.47;3.17;;;5.80;56.50;;;;;;5468803;26;20261;-63
2024/04/22 17:14:01;;;;;;;4.27;2.77;;;5.70;56.30;;;;;;5458113;26;20236;-64
2024/04/22 17:16:31;;;;;;;6.00;3.37;;;5.70;56.50;;;;;;5457919;26;20599;-65
2024/04/22 17:18:58;;;;;;;4.77;3.20;;;5.70;56.70;;;;;;5439406;26;20501;-66
2024/04/22 17:21:23;;;;;;;6.37;3.40;;;5.60;56.60;;;;;;5446152;26;20465;-64
2024/04/22 17:23:49;;;;;;;5.10;3.30;;;5.60;56.50;;;;;;5429220;26;20668;-64
2024/04/22 17:26:14;;;;;;;3.80;3.07;;;5.50;56.20;;;;;;5457205;26;20219;-64
2024/04/22 17:28:40;;;;;;;3.80;2.90;;;5.50;56.30;;;;;;5453539;26;20325;-63
2024/04/22 17:31:06;;;;;;;3.70;2.90;;;5.40;56.60;;;;;;5426526;26;20254;-64
2024/04/22 17:33:35;;;;;;;4.70;3.63;;;5.40;56.70;;;;;;5433384;26;20274;-63
2024/04/22 17:36:01;;;;;;;3.37;3.07;;;5.30;56.90;;;;;;5451062;26;22100;-64
2024/04/22 17:38:27;;;;;;;4.17;3.27;;;5.30;57.10;;;;;;5432455;26;20568;-63
2024/04/22 17:40:54;;;;;;;5.20;3.20;;;5.10;57.00;;;;;;5455692;26;20929;-63
2024/04/22 17:43:20;;;;;;;5.30;2.83;;;5.00;56.80;;;;;;5434040;26;20511;-63
2024/04/22 17:45:56;;;;;;;5.03;3.40;;;5.00;57.00;;;;;;5457801;26;20460;-63
2024/04/22 17:48:22;;;;;;;3.43;3.13;;;4.90;57.10;;;;;;5452544;26;20900;-63
2024/04/22 17:50:47;;;;;;;3.73;2.70;;;4.80;57.30;;;;;;5454682;26;20463;-64
2024/04/22 17:53:13;;;;;;;3.03;2.60;;;4.70;57.30;;;;;;5425232;26;20315;-64
2024/04/22 17:55:38;;;;;;;5.63;2.97;;;4.70;57.80;;;;;;5461002;26;20239;-64
2024/04/22 17:58:04;;;;;;;6.13;3.40;;;4.70;57.80;;;;;;5448631;26;20223;-64
2024/04/22 18:00:29;;;;;;;5.50;3.23;;;4.60;57.60;;;;;;5457696;26;20864;-63
2024/04/22 18:02:55;;;;;;;3.63;3.30;;;4.50;57.70;;;;;;5452068;26;20227;-63
2024/04/22 18:05:21;;;;;;;3.03;2.73;;;4.40;57.90;;;;;;5464590;26;20242;-64
2024/04/22 18:07:46;;;;;;;4.10;2.87;;;4.40;58.00;;;;;;5448997;26;20932;-63
2024/04/22 18:10:12;;;;;;;3.47;3.10;;;4.40;58.00;;;;;;5425169;26;20227;-64
2024/04/22 18:12:38;;;;;;;3.83;3.33;;;4.30;58.30;;;;;;5460172;26;20531;-64
2024/04/22 18:15:04;;;;;;;5.23;3.00;;;4.30;58.40;;;;;;5459879;26;20629;-64
2024/04/22 18:17:30;;;;;;;4.30;3.27;;;4.20;58.80;;;;;;5457247;26;20451;-64
2024/04/22 18:19:56;;;;;;;3.70;3.30;;;4.20;59.10;;;;;;5463599;26;20534;-64
2024/04/22 18:22:21;;;;;;;3.80;3.00;;;4.20;59.70;;;;;;5460385;26;20271;-64
2024/04/22 18:24:47;;;;;;;3.30;2.73;;;4.20;59.80;;;;;;5458275;26;20789;-64
2024/04/22 18:27:12;;;;;;;4.03;3.10;;;4.10;60.00;;;;;;5436174;26;20231;-64
2024/04/22 18:29:38;;;;;;;3.90;3.50;;;4.10;60.00;;;;;;5449937;26;20226;-65
2024/04/22 18:32:04;;;;;;;3.80;3.40;;;4.10;60.50;;;;;;5448453;26;20328;-65
2024/04/22 18:34:29;;;;;;;5.33;3.30;;;4.00;60.20;;;;;;5455618;26;20484;-63
2024/04/22 18:36:55;;;;;;;4.63;3.37;;;4.00;60.30;;;;;;5421254;26;20254;-63
2024/04/22 18:39:20;;;;;;;4.13;3.13;;;4.00;60.70;;;;;;5421162;26;20242;-62
2024/04/22 18:41:46;;;;;;;4.30;3.50;;;4.00;60.70;;;;;;5454635;26;20231;-63
2024/04/22 18:44:12;;;;;;;5.30;3.20;;;3.90;60.80;;;;;;5467066;26;20234;-63
2024/04/22 18:46:38;;;;;;;3.53;3.20;;;3.90;60.60;;;;;;5458795;26;20220;-63
2024/04/22 18:49:03;;;;;;;6.80;3.30;;;3.90;60.60;;;;;;5447533;26;20362;-61
2024/04/22 18:51:29;;;;;;;4.90;3.13;;;3.90;61.10;;;;;;5460981;26;20455;-63
2024/04/22 18:53:55;;;;;;;3.83;3.43;;;3.90;61.60;;;;;;5455329;26;20227;-62
2024/04/22 18:56:20;;;;;;;4.67;3.43;;;3.90;61.60;;;;;;5451523;26;20295;-63
2024/04/22 18:58:46;;;;;;;4.00;2.83;;;3.90;61.70;;;;;;5453932;26;20244;-62
2024/04/22 19:01:11;;;;;;;3.97;3.47;;;3.80;61.60;;;;;;5459212;26;20228;-62
2024/04/22 19:03:37;;;;;;;3.90;3.40;;;3.80;61.30;;;;;;5461173;26;20291;-62
2024/04/22 19:06:03;;;;;;;3.90;3.23;;;3.80;61.70;;;;;;5454595;26;20324;-65
2024/04/22 19:08:29;;;;;;;3.83;3.43;;;3.70;61.90;;;;;;5450902;26;20457;-62
2024/04/22 19:10:54;;;;;;;5.37;3.17;;;3.80;62.10;;;;;;5454083;26;20326;-63
2024/04/22 19:13:20;;;;;;;6.37;4.43;;;3.70;62.60;;;;;;5457177;26;20232;-62
2024/04/22 19:15:46;;;;;;;5.80;4.10;;;3.70;63.00;;;;;;5451000;26;20990;-62
2024/04/22 19:18:12;;;;;;;3.90;3.30;;;3.70;63.30;;;;;;5450534;26;20232;-63
2024/04/22 19:20:39;;;;;;;4.80;3.30;;;3.70;63.40;;;;;;5461113;26;20578;-64
2024/04/22 19:23:04;;;;;;;5.60;3.70;;;3.70;63.60;;;;;;5461445;26;20815;-63
2024/04/22 19:25:30;;;;;;;3.20;2.90;;;3.70;63.60;;;;;;5467320;26;20532;-63
2024/04/22 19:27:56;;;;;;;3.53;3.10;;;3.70;63.50;;;;;;5445866;26;20262;-63
2024/04/22 19:30:21;;;;;;;3.77;3.00;;;3.70;63.40;;;;;;5440743;26;20234;-62
2024/04/22 19:32:47;;;;;;;7.43;3.27;;;3.70;63.20;;;;;;5426828;26;20226;-62
2024/04/22 19:35:14;;;;;;;5.03;3.27;;;3.70;63.60;;;;;;5462601;26;20246;-64
2024/04/22 19:37:39;;;;;;;3.00;2.80;;;3.70;64.00;;;;;;5437558;26;20288;-64
2024/04/22 19:40:06;;;;;;;8.07;3.20;;;3.70;64.20;;;;;;5474073;26;20472;-63
2024/04/22 19:42:32;;;;;;;3.87;3.50;;;3.70;64.30;;;;;;5461708;26;20291;-63
2024/04/22 19:44:57;;;;;;;10.90;3.47;;;3.70;64.60;;;;;;5456942;26;20457;-65
2024/04/22 19:47:23;;;;;;;4.10;2.90;;;3.70;64.70;;;;;;5457244;26;20768;-64
2024/04/22 19:49:48;;;;;;;8.10;3.60;;;3.70;65.10;;;;;;5436946;26;20309;-63
2024/04/22 19:52:14;;;;;;;6.07;3.50;;;3.70;65.30;;;;;;5464072;26;20300;-63
2024/04/22 19:54:40;;;;;;;6.00;3.40;;;3.70;65.10;;;;;;5463797;26;20281;-62
2024/04/22 19:57:05;;;;;;;7.40;3.30;;;3.70;64.90;;;;;;5455826;26;20255;-61
2024/04/22 19:59:31;;;;;;;4.10;3.30;;;3.60;64.60;;;;;;5454279;26;20224;-62
2024/04/22 20:01:57;;;;;;;5.40;3.90;;;3.60;64.70;;;;;;5460227;26;20286;-64
2024/04/22 20:04:22;;;;;;;3.70;3.37;;;3.60;64.70;;;;;;5451453;26;21008;-62
2024/04/22 20:06:48;;;;;;;4.80;3.60;;;3.60;64.90;;;;;;5469691;26;20287;-62
2024/04/22 20:09:13;;;;;;;4.20;3.13;;;3.60;64.20;;;;;;5457861;26;20228;-62
2024/04/22 20:11:39;;;;;;;8.00;4.23;;;3.60;64.40;;;;;;5423857;26;21018;-62
2024/04/22 20:14:05;;;;;;;4.13;3.30;;;3.50;63.10;;;;;;5454402;26;20300;-62
2024/04/22 20:19:18;;;;;;;7.70;3.50;;;3.50;62.50;;;;;;5468285;26;20787;-62
2024/04/22 20:21:47;;;;;;;3.40;3.10;;;3.50;62.70;;;;;;5454774;26;20579;-62
2024/04/22 20:24:14;;;;;;;5.40;3.33;;;3.50;62.90;;;;;;5462992;26;20544;-63
2024/04/22 20:26:40;;;;;;;3.97;2.70;;;3.50;62.60;;;;;;5461343;26;20457;-62
2024/04/22 20:29:05;;;;;;;7.80;4.13;;;3.50;62.70;;;;;;5465929;26;20516;-62
2024/04/22 20:31:31;;;;;;;3.90;3.50;;;3.40;62.70;;;;;;5454634;26;20228;-62
2024/04/22 20:33:56;;;;;;;4.43;3.87;;;3.40;62.40;;;;;;5457941;26;20219;-62
2024/04/22 20:36:24;;;;;;;3.90;3.43;;;3.40;62.70;;;;;;5459526;26;20334;-62
2024/04/22 20:38:50;;;;;;;5.20;3.93;;;3.40;62.80;;;;;;5454777;26;20235;-62
2024/04/22 20:41:16;;;;;;;4.10;3.50;;;3.40;62.90;;;;;;5461961;26;21244;-62
2024/04/22 20:43:42;;;;;;;5.97;3.30;;;3.40;63.10;;;;;;5474735;26;20517;-61
2024/04/22 20:46:08;;;;;;;4.80;3.83;;;3.40;63.40;;;;;;5440576;26;20986;-62
2024/04/22 20:48:37;;;;;;;6.60;3.83;;;3.40;63.60;;;;;;5468953;26;20512;-62
2024/04/22 20:51:04;;;;;;;5.87;4.27;;;3.40;63.80;;;;;;5457977;26;20274;-62
2024/04/22 20:53:31;;;;;;;6.50;4.47;;;3.30;64.00;;;;;;5463909;26;20465;-63
2024/04/22 20:56:01;;;;;;;4.43;3.60;;;3.30;64.60;;;;;;5463551;26;21073;-62
2024/04/22 20:58:28;;;;;;;4.97;4.00;;;3.30;65.10;;;;;;5463980;26;20448;-62
2024/04/22 21:00:59;;;;;;;5.43;3.90;;;3.30;65.60;;;;;;5450623;26;21183;-62
2024/04/22 21:03:25;;;;;;;7.00;4.50;;;3.30;66.40;;;;;;5455530;26;20451;-62
2024/04/22 21:05:58;;;;;;;4.77;3.93;;;3.20;67.10;;;;;;5468313;26;20448;-62
2024/04/22 21:08:27;;;;;;;12.77;4.40;;;3.20;67.90;;;;;;5443690;26;20452;-61
2024/04/22 21:10:54;;;;;;;5.03;4.00;;;3.20;68.70;;;;;;5454557;26;21051;-62
2024/04/22 21:13:20;;;;;;;4.70;4.20;;;3.30;69.40;;;;;;5469299;26;20586;-63
2024/04/22 21:15:46;;;;;;;6.00;4.23;;;3.30;70.00;;;;;;5457591;26;20839;-63
2024/04/22 21:18:13;;;;;;;4.93;4.00;;;3.30;70.50;;;;;;5427595;26;20227;-62
2024/04/22 21:20:39;;;;;;;5.40;3.90;;;3.30;71.10;;;;;;5453191;26;21362;-62
2024/04/22 21:23:06;;;;;;;4.63;3.67;;;3.30;71.70;;;;;;5466941;26;20894;-62
2024/04/22 21:25:31;;;;;;;5.23;4.10;;;3.30;72.20;;;;;;5464916;26;20301;-62
2024/04/22 21:27:58;;;;;;;7.30;4.33;;;3.20;72.90;;;;;;5421651;26;20461;-63
2024/04/22 21:30:23;;;;;;;4.63;3.60;;;3.20;73.20;;;;;;5459652;26;20235;-61
2024/04/22 21:32:54;;;;;;;7.30;4.37;;;3.20;72.30;;;;;;5450934;26;20513;-62
2024/04/22 21:35:20;;;;;;;5.73;4.37;;;3.20;72.70;;;;;;5460850;26;20227;-62
2024/04/22 21:37:45;;;;;;;7.50;4.23;;;3.20;73.50;;;;;;5440517;26;20495;-61
2024/04/22 21:40:11;;;;;;;7.10;4.80;;;3.10;73.50;;;;;;5449156;26;20891;-63
2024/04/22 21:42:37;;;;;;;6.40;4.00;;;3.10;75.00;;;;;;5457619;26;20270;-62
2024/04/22 21:45:04;;;;;;;6.50;3.93;;;3.10;76.30;;;;;;5460939;26;21213;-62
2024/04/22 21:47:30;;;;;;;5.47;4.00;;;3.00;75.80;;;;;;5461721;26;20449;-62
2024/04/22 21:49:56;;;;;;;9.60;4.37;;;3.00;76.10;;;;;;5466010;26;20435;-62
2024/04/22 21:52:22;;;;;;;5.57;4.30;;;3.00;77.00;;;;;;5454804;26;20514;-62
2024/04/22 21:54:48;;;;;;;7.83;4.73;;;2.90;77.00;;;;;;5457532;26;20584;-62
2024/04/22 21:57:52;;;;;;;7.20;4.87;;;2.90;78.10;;;;;;5452208;26;20472;-63
2024/04/22 22:00:55;;;;;;;8.70;5.00;;;2.90;79.80;;;;;;5442401;26;20463;-62
2024/04/22 22:03:58;;;;;;;5.47;4.53;;;2.80;80.10;;;;;;5435184;26;20468;-62
2024/04/22 22:07:01;;;;;;;6.50;4.57;;;2.80;81.50;;;;;;5454015;26;20640;-63
2024/04/22 22:09:31;;;;;;;8.60;5.57;;;2.80;83.90;;;;;;5449937;26;20507;-62
2024/04/22 22:11:57;;;;;;;6.70;4.10;;;2.80;84.10;;;;;;5457998;26;20544;-62
2024/04/22 22:14:23;;;;;;;8.20;5.40;;;2.80;84.50;;;;;;5465655;26;20448;-63
2024/04/22 22:16:49;;;;;;;9.63;4.90;;;2.80;84.60;;;;;;5451550;26;20495;-62
2024/04/22 22:19:15;;;;;;;7.67;4.90;;;2.80;84.60;;;;;;5469754;26;20808;-62
2024/04/22 22:21:41;;;;;;;11.20;6.03;;;2.80;84.80;;;;;;5432129;26;20565;-62
2024/04/22 22:24:07;;;;;;;5.90;4.60;;;2.80;85.20;;;;;;5434383;26;20525;-63
2024/04/22 22:26:33;;;;;;;6.33;4.93;;;2.80;85.60;;;;;;5462755;26;20238;-62
2024/04/22 22:29:04;;;;;;;7.57;5.10;;;2.70;85.60;;;;;;5460933;26;20750;-62
2024/04/22 22:31:39;;;;;;;9.10;4.70;;;2.70;84.80;;;;;;5462631;26;20277;-62
2024/04/22 22:34:05;;;;;;;9.40;5.67;;;2.70;85.50;;;;;;5459791;26;20467;-62
2024/04/22 22:36:31;;;;;;;7.47;5.10;;;2.70;84.90;;;;;;5465450;26;20504;-62
2024/04/22 22:38:56;;;;;;;6.67;5.10;;;2.70;84.30;;;;;;5458946;26;20453;-62
2024/04/22 22:41:23;;;;;;;10.87;5.40;;;2.70;84.60;;;;;;5465288;26;20250;-63
2024/04/22 22:43:52;;;;;;;8.70;5.80;;;2.70;85.20;;;;;;5469740;26;20227;-62
2024/04/22 22:46:17;;;;;;;8.23;5.33;;;2.60;86.90;;;;;;5466075;26;20576;-62
2024/04/22 22:48:43;;;;;;;9.30;5.73;;;2.60;87.80;;;;;;5413927;26;20449;-62
2024/04/22 22:51:09;;;;;;;8.73;5.40;;;2.60;87.30;;;;;;5455936;26;20274;-63
2024/04/22 22:53:34;;;;;;;7.10;4.70;;;2.60;87.30;;;;;;5455422;26;20724;-62
2024/04/22 22:56:00;;;;;;;5.90;4.33;;;2.50;88.00;;;;;;5458930;26;20604;-62
2024/04/22 22:58:26;;;;;;;7.30;4.73;;;2.50;86.90;;;;;;5466935;26;20714;-63
2024/04/22 23:00:52;;;;;;;6.27;5.10;;;2.50;87.70;;;;;;5453917;26;20215;-62
2024/04/22 23:03:17;;;;;;;9.27;5.30;;;2.50;88.30;;;;;;5468416;26;20588;-62
2024/04/22 23:05:43;;;;;;;7.27;5.17;;;2.40;88.60;;;;;;5455742;26;20243;-62
2024/04/22 23:08:09;;;;;;;9.33;5.23;;;2.40;88.70;;;;;;5473274;26;20215;-63
2024/04/22 23:10:34;;;;;;;10.73;5.97;;;2.40;89.30;;;;;;5467881;26;20219;-62
2024/04/22 23:13:00;;;;;;;8.00;5.70;;;2.40;89.70;;;;;;5461388;26;20227;-62
2024/04/22 23:15:26;;;;;;;9.07;5.97;;;2.40;89.50;;;;;;5465272;26;20230;-62
2024/04/22 23:17:52;;;;;;;9.13;5.30;;;2.30;90.00;;;;;;5459817;26;20227;-62
2024/04/22 23:20:17;;;;;;;11.70;5.27;;;2.30;90.00;;;;;;5460424;26;20710;-62
2024/04/22 23:22:43;;;;;;;8.73;5.40;;;2.30;88.10;;;;;;5474674;26;20566;-62
2024/04/22 23:25:08;;;;;;;9.20;5.67;;;2.30;88.20;;;;;;5466998;26;20247;-63
2024/04/22 23:27:34;;;;;;;6.57;5.23;;;2.20;89.10;;;;;;5464560;26;20326;-62
2024/04/22 23:30:00;;;;;;;10.40;5.70;;;2.20;89.40;;;;;;5468117;26;20223;-62
2024/04/22 23:32:26;;;;;;;9.57;6.07;;;2.20;90.10;;;;;;5459089;26;20232;-62
2024/04/22 23:34:52;;;;;;;9.00;6.30;;;2.10;90.20;;;;;;5463102;26;20520;-63
2024/04/22 23:37:18;;;;;;;8.60;5.90;;;2.10;90.20;;;;;;5445160;26;20447;-62
2024/04/22 23:39:44;;;;;;;9.83;6.17;;;2.10;90.40;;;;;;5422007;26;20242;-63
2024/04/22 23:42:10;;;;;;;12.30;7.00;;;2.10;90.60;;;;;;5466069;26;20456;-61
2024/04/22 23:44:36;;;;;;;10.13;6.80;;;2.00;91.10;;;;;;5463751;26;20916;-63
2024/04/22 23:47:01;;;;;;;15.47;6.93;;;2.00;90.80;;;;;;5458738;26;20445;-63
2024/04/22 23:49:27;;;;;;;7.43;5.30;;;2.00;90.70;;;;;;5464943;26;20269;-63
2024/04/22 23:51:53;;;;;;;6.67;5.07;;;2.00;91.10;;;;;;5464043;26;20348;-62
2024/04/22 23:54:19;;;;;;;8.87;5.50;;;1.90;91.30;;;;;;5457820;26;20826;-62
2024/04/22 23:56:45;;;;;;;10.17;4.97;;;1.80;91.30;;;;;;5427659;26;20475;-62
2024/04/22 23:59:10;;;;;;;7.63;4.93;;;1.90;91.60;;;;;;5458894;26;20224;-62
